createdAt,value
2023-05-12T00:01:34.825Z,44.60
2023-05-12T00:04:02.087Z,44.60
2023-05-12T00:06:29.250Z,44.60
2023-05-12T00:08:56.352Z,44.60
2023-05-12T00:11:24.063Z,44.60
2023-05-12T00:13:51.341Z,44.50
2023-05-12T00:16:19.099Z,44.60
2023-05-12T00:18:46.364Z,44.60
2023-05-12T00:21:13.544Z,44.60
2023-05-12T00:23:40.795Z,44.60
2023-05-12T00:26:07.959Z,44.60
2023-05-12T00:28:36.053Z,44.60
2023-05-12T00:31:04.249Z,44.60
2023-05-12T00:33:31.961Z,45.10
2023-05-12T00:36:01.390Z,44.60
2023-05-12T00:38:28.440Z,44.60
2023-05-12T00:40:55.547Z,44.50
2023-05-12T00:43:22.762Z,44.50
2023-05-12T00:45:50.140Z,44.50
2023-05-12T00:48:18.520Z,44.50
2023-05-12T00:50:45.726Z,44.50
2023-05-12T00:53:13.617Z,44.50
2023-05-12T00:55:41.347Z,44.50
2023-05-12T00:58:08.738Z,44.50
2023-05-12T01:00:35.908Z,44.50
2023-05-12T01:03:03.825Z,44.50
2023-05-12T01:05:47.805Z,44.50
2023-05-12T01:08:16.882Z,44.50
2023-05-12T01:10:45.130Z,44.50
2023-05-12T01:13:12.396Z,44.60
2023-05-12T01:15:43.926Z,44.60
2023-05-12T01:18:12.912Z,44.70
2023-05-12T01:20:43.149Z,44.80
2023-05-12T01:23:10.522Z,44.80
2023-05-12T01:25:40.075Z,44.80
2023-05-12T01:28:08.314Z,44.90
2023-05-12T01:30:37.938Z,44.90
2023-05-12T01:33:05.238Z,44.90
2023-05-12T01:35:32.461Z,44.90
2023-05-12T01:37:59.505Z,44.90
2023-05-12T01:40:26.829Z,44.90
2023-05-12T01:42:55.347Z,44.90
2023-05-12T01:45:22.539Z,45.00
2023-05-12T01:47:49.704Z,45.00
2023-05-12T01:50:16.991Z,44.90
2023-05-12T01:52:45.862Z,44.90
2023-05-12T01:55:13.089Z,44.80
2023-05-12T01:57:40.118Z,44.80
2023-05-12T02:00:08.148Z,44.80
2023-05-12T02:02:35.391Z,44.90
2023-05-12T02:05:02.576Z,44.80
2023-05-12T02:07:30.497Z,44.80
2023-05-12T02:09:57.543Z,44.80
2023-05-12T02:12:24.697Z,45.30
2023-05-12T02:14:51.801Z,44.70
2023-05-12T02:17:18.932Z,44.70
2023-05-12T02:19:46.605Z,44.70
2023-05-12T02:22:13.692Z,44.60
2023-05-12T02:24:41.855Z,44.60
2023-05-12T02:27:08.895Z,44.60
2023-05-12T02:29:36.456Z,44.50
2023-05-12T02:32:04.964Z,44.50
2023-05-12T02:34:32.302Z,44.50
2023-05-12T02:36:59.350Z,44.50
2023-05-12T02:39:26.426Z,44.50
2023-05-12T02:41:53.514Z,44.50
2023-05-12T02:44:22.832Z,44.50
2023-05-12T02:46:49.936Z,44.60
2023-05-12T02:49:17.075Z,44.50
2023-05-12T02:51:44.247Z,44.60
2023-05-12T02:54:11.393Z,45.10
2023-05-12T02:56:38.550Z,44.50
2023-05-12T02:59:05.706Z,44.50
2023-05-12T03:01:32.823Z,44.50
2023-05-12T03:03:59.969Z,44.60
2023-05-12T03:06:27.043Z,44.60
2023-05-12T03:08:55.927Z,44.50
2023-05-12T03:11:23.281Z,44.50
2023-05-12T03:13:50.373Z,44.50
2023-05-12T03:16:19.737Z,44.50
2023-05-12T03:18:47.060Z,44.60
2023-05-12T03:21:15.121Z,44.50
2023-05-12T03:23:42.239Z,44.50
2023-05-12T03:26:09.334Z,44.50
2023-05-12T03:28:36.444Z,44.50
2023-05-12T03:31:03.629Z,44.50
2023-05-12T03:33:31.705Z,44.50
2023-05-12T03:35:58.969Z,44.50
2023-05-12T03:38:26.121Z,44.50
2023-05-12T03:41:04.425Z,44.60
2023-05-12T03:43:32.072Z,44.60
2023-05-12T03:45:59.535Z,44.70
2023-05-12T03:48:26.746Z,44.70
2023-05-12T03:50:53.918Z,44.70
2023-05-12T03:53:21.009Z,44.80
2023-05-12T03:55:48.163Z,44.80
2023-05-12T03:58:15.575Z,44.80
2023-05-12T04:00:44.151Z,44.80
2023-05-12T04:03:11.380Z,44.80
2023-05-12T04:05:39.764Z,44.80
2023-05-12T04:08:06.890Z,44.80
2023-05-12T04:10:38.124Z,44.80
2023-05-12T04:13:05.205Z,44.80
2023-05-12T04:15:32.423Z,44.80
2023-05-12T04:17:59.530Z,44.70
2023-05-12T04:20:26.727Z,44.70
2023-05-12T04:22:53.942Z,44.70
2023-05-12T04:25:21.532Z,44.70
2023-05-12T04:27:48.630Z,44.70
2023-05-12T04:30:17.193Z,44.60
2023-05-12T04:32:44.428Z,44.60
2023-05-12T04:35:11.665Z,44.60
2023-05-12T04:37:38.760Z,44.60
2023-05-12T04:40:07.868Z,44.50
2023-05-12T04:42:35.432Z,44.40
2023-05-12T04:45:02.689Z,44.40
2023-05-12T04:47:30.005Z,44.40
2023-05-12T04:49:57.332Z,44.30
2023-05-12T04:52:25.040Z,44.30
2023-05-12T04:54:52.405Z,44.30
2023-05-12T04:57:19.524Z,44.30
2023-05-12T04:59:46.634Z,44.30
2023-05-12T05:02:13.867Z,44.90
2023-05-12T05:04:41.337Z,44.30
2023-05-12T05:07:08.794Z,44.40
2023-05-12T05:09:36.733Z,44.30
2023-05-12T05:12:04.109Z,44.40
2023-05-12T05:14:31.264Z,45.30
2023-05-12T05:16:58.412Z,44.90
2023-05-12T05:19:40.322Z,44.90
2023-05-12T05:22:13.475Z,45.10
2023-05-12T05:24:40.626Z,45.20
2023-05-12T05:27:07.739Z,45.30
2023-05-12T05:29:34.921Z,45.30
2023-05-12T05:32:03.132Z,45.40
2023-05-12T05:34:30.360Z,45.50
2023-05-12T05:36:57.508Z,45.50
2023-05-12T05:39:24.697Z,45.50
2023-05-12T05:41:51.873Z,45.50
2023-05-12T05:44:19.372Z,45.50
2023-05-12T05:46:46.590Z,45.30
2023-05-12T05:49:13.846Z,45.30
2023-05-12T05:51:40.965Z,45.20
2023-05-12T05:54:08.505Z,45.10
2023-05-12T05:56:36.565Z,45.10
2023-05-12T05:59:05.229Z,45.00
2023-05-12T06:01:33.117Z,45.00
2023-05-12T06:04:00.542Z,45.00
2023-05-12T06:06:28.906Z,45.00
2023-05-12T06:08:56.925Z,45.10
2023-05-12T06:11:24.086Z,45.10
2023-05-12T06:13:51.253Z,45.10
2023-05-12T06:16:18.460Z,45.30
2023-05-12T06:18:45.897Z,45.30
2023-05-12T06:21:13.282Z,45.30
2023-05-12T06:23:40.422Z,45.30
2023-05-12T06:26:08.031Z,45.30
2023-05-12T06:28:35.305Z,45.30
2023-05-12T06:31:02.520Z,45.20
2023-05-12T06:33:31.115Z,45.20
2023-05-12T06:35:58.602Z,45.20
2023-05-12T06:38:26.055Z,45.20
2023-05-12T06:40:53.271Z,45.20
2023-05-12T06:43:20.446Z,45.20
2023-05-12T06:45:48.265Z,45.20
2023-05-12T06:48:15.425Z,45.30
2023-05-12T06:50:43.614Z,45.40
2023-05-12T06:53:11.145Z,45.50
2023-05-12T06:55:38.608Z,45.60
2023-05-12T06:58:06.550Z,45.50
2023-05-12T07:00:33.827Z,45.50
2023-05-12T07:03:01.012Z,45.20
2023-05-12T07:05:28.365Z,45.20
2023-05-12T07:07:55.583Z,45.00
2023-05-12T07:10:23.278Z,45.00
2023-05-12T07:12:50.391Z,44.90
2023-05-12T07:15:18.134Z,44.70
2023-05-12T07:17:45.431Z,44.80
2023-05-12T07:20:13.025Z,44.80
2023-05-12T07:22:41.453Z,44.60
2023-05-12T07:25:09.039Z,44.50
2023-05-12T07:27:36.750Z,44.40
2023-05-12T07:30:05.300Z,44.20
2023-05-12T07:32:32.666Z,44.20
2023-05-12T07:35:00.027Z,44.10
2023-05-12T07:37:27.334Z,44.20
2023-05-12T07:39:54.554Z,44.30
2023-05-12T07:42:22.698Z,44.40
2023-05-12T07:44:49.905Z,44.40
2023-05-12T07:47:17.530Z,44.50
2023-05-12T07:49:45.105Z,44.50
2023-05-12T07:52:12.308Z,44.30
2023-05-12T07:54:39.415Z,44.30
2023-05-12T07:57:06.735Z,44.30
2023-05-12T07:59:34.598Z,44.40
2023-05-12T08:02:01.778Z,44.20
2023-05-12T08:04:28.954Z,44.20
2023-05-12T08:06:56.212Z,44.10
2023-05-12T08:09:23.388Z,44.10
2023-05-12T08:11:51.793Z,44.10
2023-05-12T08:14:19.139Z,43.90
2023-05-12T08:16:46.868Z,43.70
2023-05-12T08:19:14.633Z,43.70
2023-05-12T08:21:41.899Z,43.70
2023-05-12T08:24:09.426Z,43.70
2023-05-12T08:26:36.557Z,43.60
2023-05-12T08:29:04.940Z,43.60
2023-05-12T08:31:32.840Z,43.60
2023-05-12T08:34:09.877Z,43.70
2023-05-12T08:36:40.017Z,43.70
2023-05-12T08:39:11.383Z,43.70
2023-05-12T08:42:09.679Z,43.70
2023-05-12T08:44:38.721Z,43.80
2023-05-12T08:47:09.649Z,43.80
2023-05-12T08:49:39.421Z,43.70
2023-05-12T08:52:08.123Z,43.60
2023-05-12T08:54:45.326Z,43.60
2023-05-12T08:57:21.933Z,43.60
2023-05-12T08:59:49.858Z,43.30
2023-05-12T09:02:19.256Z,43.00
2023-05-12T09:04:48.622Z,43.30
2023-05-12T09:07:16.704Z,43.30
2023-05-12T09:09:47.200Z,43.20
2023-05-12T09:12:18.347Z,43.00
2023-05-12T09:14:47.241Z,43.00
2023-05-12T09:17:14.563Z,42.80
2023-05-12T09:19:41.797Z,42.70
2023-05-12T09:22:14.878Z,42.60
2023-05-12T09:24:44.476Z,42.60
2023-05-12T09:27:11.575Z,42.60
2023-05-12T09:29:58.569Z,42.60
2023-05-12T09:32:35.501Z,42.70
2023-05-12T09:35:06.832Z,42.80
2023-05-12T09:37:35.370Z,42.80
2023-05-12T09:40:05.053Z,42.70
2023-05-12T09:42:34.761Z,42.70
2023-05-12T09:45:07.095Z,42.70
2023-05-12T09:47:39.398Z,42.80
2023-05-12T09:50:08.505Z,42.80
2023-05-12T09:52:39.969Z,42.80
2023-05-12T09:55:10.416Z,42.90
2023-05-12T09:57:41.965Z,42.70
2023-05-12T10:00:36.595Z,42.80
2023-05-12T10:03:16.413Z,42.70
2023-05-12T10:05:50.830Z,43.10
2023-05-12T10:08:24.422Z,42.60
2023-05-12T10:10:54.007Z,42.60
2023-05-12T10:13:22.865Z,42.50
2023-05-12T10:15:52.249Z,42.40
2023-05-12T10:18:19.615Z,42.50
2023-05-12T10:20:47.436Z,42.20
2023-05-12T10:23:17.792Z,42.30
2023-05-12T10:25:45.385Z,42.40
2023-05-12T10:28:12.869Z,42.60
2023-05-12T10:30:41.426Z,42.70
2023-05-12T10:33:10.191Z,42.60
2023-05-12T10:35:38.288Z,42.60
2023-05-12T10:38:10.319Z,42.70
2023-05-12T10:40:38.171Z,42.50
2023-05-12T10:43:05.387Z,42.60
2023-05-12T10:45:37.646Z,42.50
2023-05-12T10:48:07.190Z,42.40
2023-05-12T10:50:34.733Z,42.50
2023-05-12T10:53:01.904Z,42.50
2023-05-12T10:55:34.464Z,42.60
2023-05-12T10:58:12.435Z,42.60
2023-05-12T11:00:46.819Z,42.60
2023-05-12T11:03:18.366Z,42.70
2023-05-12T11:05:47.583Z,42.70
2023-05-12T11:08:18.207Z,42.70
2023-05-12T11:10:47.196Z,42.60
2023-05-12T11:13:14.489Z,42.60
2023-05-12T11:15:44.663Z,42.80
2023-05-12T11:18:13.094Z,42.90
2023-05-12T11:20:40.362Z,42.90
2023-05-12T11:23:07.526Z,42.90
2023-05-12T11:25:35.985Z,43.00
2023-05-12T11:28:03.599Z,43.50
2023-05-12T11:30:31.370Z,43.10
2023-05-12T11:33:02.591Z,43.30
2023-05-12T11:35:32.927Z,43.10
2023-05-12T11:38:00.192Z,43.10
2023-05-12T11:40:27.553Z,43.00
2023-05-12T11:42:56.353Z,42.90
2023-05-12T11:45:27.083Z,43.00
2023-05-12T11:48:05.566Z,43.00
2023-05-12T11:58:21.967Z,43.20
2023-05-12T12:00:49.377Z,43.20
2023-05-12T12:03:17.119Z,43.20
2023-05-12T12:05:57.319Z,43.80
2023-05-12T12:09:19.644Z,43.10
2023-05-12T12:11:46.702Z,43.00
2023-05-12T12:14:13.855Z,42.90
2023-05-12T12:16:40.910Z,42.80
2023-05-12T12:19:09.046Z,42.80
2023-05-12T12:21:38.172Z,42.80
2023-05-12T12:24:06.269Z,42.80
2023-05-12T12:26:33.450Z,42.90
2023-05-12T12:29:00.503Z,42.80
2023-05-12T12:31:27.942Z,42.80
2023-05-12T12:35:14.770Z,42.80
2023-05-12T12:37:42.105Z,42.80
2023-05-12T12:40:10.208Z,42.90
2023-05-12T12:42:39.901Z,42.80
2023-05-12T12:45:08.671Z,42.90
2023-05-12T12:47:36.592Z,42.90
2023-05-12T12:50:13.882Z,43.00
2023-05-12T12:52:40.995Z,43.30
2023-05-12T12:55:08.493Z,43.40
2023-05-12T12:57:35.629Z,43.40
2023-05-12T13:00:04.888Z,43.60
2023-05-12T13:02:32.283Z,43.80
2023-05-12T13:05:03.917Z,44.40
2023-05-12T13:07:31.070Z,44.70
2023-05-12T13:09:58.213Z,44.70
2023-05-12T13:12:31.632Z,45.40
2023-05-12T13:15:00.474Z,46.50
2023-05-12T13:17:27.813Z,47.30
2023-05-12T13:19:55.219Z,47.90
2023-05-12T13:22:22.885Z,48.10
2023-05-12T13:24:58.481Z,48.20
2023-05-12T13:27:25.575Z,48.50
2023-05-12T13:29:52.918Z,48.50
2023-05-12T13:32:20.970Z,47.90
2023-05-12T13:34:48.073Z,47.30
2023-05-12T13:37:45.775Z,46.70
2023-05-12T13:40:13.214Z,46.30
2023-05-12T13:42:40.394Z,46.00
2023-05-12T13:45:09.304Z,45.80
2023-05-12T13:47:36.681Z,45.70
2023-05-12T13:50:03.914Z,45.60
2023-05-12T13:52:31.005Z,45.40
2023-05-12T13:54:58.114Z,45.20
2023-05-12T13:57:26.010Z,45.00
2023-05-12T13:59:55.003Z,44.80
2023-05-12T14:02:22.236Z,44.60
2023-05-12T14:04:49.393Z,44.50
2023-05-12T14:07:16.618Z,44.50
2023-05-12T14:09:43.769Z,44.50
2023-05-12T14:12:11.916Z,44.60
2023-05-12T14:14:39.068Z,44.80
2023-05-12T14:17:06.301Z,45.00
2023-05-12T14:19:33.540Z,45.30
2023-05-12T14:22:00.941Z,45.40
2023-05-12T14:24:29.023Z,45.60
2023-05-12T14:26:56.222Z,45.60
2023-05-12T14:29:23.432Z,45.70
2023-05-12T14:31:50.567Z,45.60
2023-05-12T14:34:19.424Z,45.60
2023-05-12T14:36:47.642Z,45.50
2023-05-12T14:39:14.859Z,45.40
2023-05-12T14:41:41.937Z,45.40
2023-05-12T14:44:09.087Z,45.80
2023-05-12T14:46:36.185Z,45.30
2023-05-12T14:49:10.691Z,45.20
2023-05-12T14:51:38.501Z,45.30
2023-05-12T14:54:12.564Z,45.30
2023-05-12T14:56:49.265Z,45.10
2023-05-12T14:59:17.802Z,45.10
2023-05-12T15:01:45.026Z,45.00
2023-05-12T15:04:12.181Z,45.00
2023-05-12T15:06:39.271Z,44.90
2023-05-12T15:09:07.587Z,44.90
2023-05-12T15:11:36.993Z,44.90
2023-05-12T15:14:06.239Z,44.80
2023-05-12T15:16:33.351Z,44.80
2023-05-12T15:19:00.470Z,44.90
2023-05-12T15:21:27.588Z,44.80
2023-05-12T15:23:54.698Z,44.80
2023-05-12T15:26:32.651Z,44.70
2023-05-12T15:29:00.676Z,44.70
2023-05-12T15:31:29.934Z,44.70
2023-05-12T15:33:58.224Z,44.70
2023-05-12T15:36:26.378Z,44.70
2023-05-12T15:38:53.690Z,44.80
2023-05-12T15:41:20.855Z,44.80
2023-05-12T15:43:48.019Z,44.70
2023-05-12T15:46:15.174Z,44.70
2023-05-12T15:48:42.338Z,44.70
2023-05-12T15:51:09.452Z,44.70
2023-05-12T15:53:36.580Z,44.80
2023-05-12T15:56:05.286Z,44.80
2023-05-12T15:58:33.220Z,44.90
2023-05-12T16:01:01.410Z,45.00
2023-05-12T16:03:28.647Z,44.90
2023-05-12T16:05:55.950Z,44.90
2023-05-12T16:08:24.222Z,45.00
2023-05-12T16:10:51.462Z,45.00
2023-05-12T16:13:18.553Z,45.00
2023-05-12T16:15:45.666Z,45.00
2023-05-12T16:18:12.795Z,45.00
2023-05-12T16:20:41.763Z,45.10
2023-05-12T16:23:08.987Z,45.10
2023-05-12T16:25:36.305Z,45.10
2023-05-12T16:28:04.063Z,45.70
2023-05-12T16:30:31.168Z,45.10
2023-05-12T16:32:58.452Z,45.10
2023-05-12T16:35:26.025Z,45.10
2023-05-12T16:37:53.283Z,45.20
2023-05-12T16:40:20.616Z,45.20
2023-05-12T16:42:50.198Z,45.30
2023-05-12T16:45:17.611Z,45.30
2023-05-12T16:47:44.915Z,45.30
2023-05-12T16:50:12.155Z,45.40
2023-05-12T16:52:39.255Z,45.90
2023-05-12T16:55:07.110Z,45.40
2023-05-12T16:57:34.754Z,45.50
2023-05-12T17:00:05.389Z,45.50
2023-05-12T17:02:33.361Z,45.60
2023-05-12T17:05:01.210Z,45.60
2023-05-12T17:07:28.520Z,45.60
2023-05-12T17:09:55.674Z,45.60
2023-05-12T17:12:22.850Z,45.50
2023-05-12T17:14:59.339Z,45.50
2023-05-12T17:17:34.166Z,45.60
2023-05-12T17:20:01.572Z,45.50
2023-05-12T17:22:28.932Z,45.50
2023-05-12T17:24:56.021Z,45.60
2023-05-12T17:27:23.129Z,45.60
2023-05-12T17:29:50.225Z,45.60
2023-05-12T17:32:17.380Z,45.60
2023-05-12T17:34:44.521Z,45.70
2023-05-12T17:37:12.093Z,45.70
2023-05-12T17:39:40.954Z,45.70
2023-05-12T17:42:08.128Z,45.80
2023-05-12T17:44:35.257Z,45.80
2023-05-12T17:47:02.522Z,45.80
2023-05-12T17:49:29.660Z,45.90
2023-05-12T17:51:56.841Z,45.90
2023-05-12T17:54:23.990Z,45.90
2023-05-12T17:56:51.202Z,45.90
2023-05-12T17:59:18.376Z,45.90
2023-05-12T18:01:45.712Z,46.50
2023-05-12T18:04:13.038Z,46.00
2023-05-12T18:06:40.276Z,46.00
2023-05-12T18:09:08.734Z,46.00
2023-05-12T18:11:35.905Z,46.10
2023-05-12T18:14:06.121Z,46.10
2023-05-12T18:16:35.284Z,46.60
2023-05-12T18:19:03.030Z,46.10
2023-05-12T18:21:30.210Z,46.20
2023-05-12T18:23:57.363Z,46.10
2023-05-12T18:26:24.449Z,46.20
2023-05-12T18:28:53.081Z,46.20
2023-05-12T18:31:20.326Z,46.20
2023-05-12T18:33:51.007Z,46.30
2023-05-12T18:36:18.595Z,46.20
2023-05-12T18:38:45.964Z,46.30
2023-05-12T18:41:13.080Z,46.30
2023-05-12T18:43:42.030Z,46.30
2023-05-12T18:46:09.246Z,46.30
2023-05-12T18:48:36.440Z,46.30
2023-05-12T18:51:03.709Z,46.40
2023-05-12T18:53:30.972Z,46.40
2023-05-12T18:55:58.111Z,46.50
2023-05-12T18:58:26.605Z,46.50
2023-05-12T19:00:54.046Z,46.50
2023-05-12T19:03:21.461Z,46.50
2023-05-12T19:05:49.191Z,46.50
2023-05-12T19:08:17.780Z,46.50
2023-05-12T19:10:45.585Z,46.60
2023-05-12T19:13:12.823Z,46.60
2023-05-12T19:15:39.921Z,46.60
2023-05-12T19:18:07.176Z,46.60
2023-05-12T19:20:34.347Z,46.60
2023-05-12T19:23:01.713Z,46.60
2023-05-12T19:25:28.995Z,46.60
2023-05-12T19:27:56.162Z,46.60
2023-05-12T19:30:23.481Z,46.60
2023-05-12T19:32:50.708Z,46.60
2023-05-12T19:35:17.921Z,46.60
2023-05-12T19:37:45.279Z,46.60
2023-05-12T19:40:12.688Z,46.70
2023-05-12T19:42:43.830Z,46.70
2023-05-12T19:45:11.190Z,46.70
2023-05-12T19:47:38.641Z,46.70
2023-05-12T19:50:06.337Z,46.70
2023-05-12T19:52:34.517Z,46.60
2023-05-12T19:55:04.580Z,46.60
2023-05-12T19:57:31.702Z,46.70
2023-05-12T19:59:59.029Z,46.70
2023-05-12T20:02:30.938Z,46.70
2023-05-12T20:05:03.284Z,46.60
2023-05-12T20:07:30.524Z,46.60
2023-05-12T20:09:57.736Z,46.70
2023-05-12T20:12:24.783Z,46.70
2023-05-12T20:14:51.839Z,46.60
2023-05-12T20:17:19.146Z,46.70
2023-05-12T20:19:46.295Z,46.70
2023-05-12T20:22:13.388Z,46.70
2023-05-12T20:24:40.735Z,46.70
2023-05-12T20:27:08.074Z,46.70
2023-05-12T20:29:35.176Z,46.70
2023-05-12T20:32:02.323Z,46.70
2023-05-12T20:34:30.034Z,46.70
2023-05-12T20:36:57.665Z,46.80
2023-05-12T20:39:24.761Z,46.80
2023-05-12T20:41:51.868Z,46.80
2023-05-12T20:44:19.531Z,46.80
2023-05-12T20:46:46.958Z,46.80
2023-05-12T20:49:15.263Z,46.80
2023-05-12T20:51:42.404Z,46.80
2023-05-12T20:54:09.508Z,46.90
2023-05-12T20:56:36.640Z,46.90
2023-05-12T20:59:03.889Z,46.90
2023-05-12T21:01:31.071Z,47.00
2023-05-12T21:03:58.321Z,47.00
2023-05-12T21:06:25.796Z,47.00
2023-05-12T21:08:52.896Z,47.00
2023-05-12T21:11:20.058Z,47.00
2023-05-12T21:13:48.423Z,47.00
2023-05-12T21:16:16.731Z,47.10
2023-05-12T21:18:44.213Z,47.00
2023-05-12T21:21:11.533Z,47.00
2023-05-12T21:23:38.888Z,47.00
2023-05-12T21:26:06.157Z,47.00
2023-05-12T21:28:33.296Z,47.00
2023-05-12T21:31:00.401Z,47.00
2023-05-12T21:33:28.092Z,47.00
2023-05-12T21:35:55.248Z,47.00
2023-05-12T21:38:22.354Z,46.90
2023-05-12T21:40:52.719Z,46.90
2023-05-12T21:43:19.794Z,46.90
2023-05-12T21:45:46.910Z,46.80
2023-05-12T21:48:14.293Z,46.80
2023-05-12T21:50:41.482Z,47.30
2023-05-12T21:53:08.597Z,46.70
2023-05-12T21:55:35.830Z,46.80
2023-05-12T21:58:02.929Z,46.70
2023-05-12T22:00:29.991Z,46.70
2023-05-12T22:02:57.119Z,46.70
2023-05-12T22:05:24.376Z,46.70
2023-05-12T22:07:51.475Z,46.70
2023-05-12T22:10:18.702Z,46.70
2023-05-12T22:12:46.790Z,46.70
2023-05-12T22:15:13.979Z,46.70
2023-05-12T22:17:41.234Z,46.70
2023-05-12T22:20:09.477Z,46.70
2023-05-12T22:22:36.653Z,46.70
2023-05-12T22:25:04.855Z,46.70
2023-05-12T22:27:32.081Z,46.70
2023-05-12T22:29:59.184Z,46.70
2023-05-12T22:32:26.547Z,46.70
2023-05-12T22:34:54.527Z,46.70
2023-05-12T22:37:22.435Z,46.70
2023-05-12T22:39:49.526Z,46.70
2023-05-12T22:42:16.629Z,46.70
2023-05-12T22:44:43.687Z,46.70
2023-05-12T22:47:10.939Z,46.70
2023-05-12T22:49:38.829Z,46.70
2023-05-12T22:52:06.237Z,46.80
2023-05-12T22:54:36.372Z,46.80
2023-05-12T22:57:03.420Z,46.80
2023-05-12T22:59:30.572Z,46.80
2023-05-12T23:01:57.863Z,46.90
2023-05-12T23:04:25.130Z,46.90
2023-05-12T23:06:52.326Z,46.90
2023-05-12T23:09:19.372Z,46.90
2023-05-12T23:11:46.636Z,46.90
2023-05-12T23:14:13.716Z,46.90
2023-05-12T23:16:40.826Z,46.90
2023-05-12T23:19:08.098Z,46.90
2023-05-12T23:21:35.164Z,46.90
2023-05-12T23:24:02.345Z,46.90
2023-05-12T23:26:29.441Z,46.80
2023-05-12T23:28:56.597Z,46.80
2023-05-12T23:31:23.789Z,46.70
2023-05-12T23:33:51.163Z,46.60
2023-05-12T23:36:18.288Z,46.60
2023-05-12T23:38:45.481Z,46.60
2023-05-12T23:41:12.528Z,46.50
2023-05-12T23:43:39.598Z,46.50
2023-05-12T23:46:06.850Z,46.50
2023-05-12T23:48:33.957Z,46.50
2023-05-12T23:51:01.064Z,46.50
2023-05-12T23:53:28.230Z,46.50
2023-05-12T23:55:55.319Z,46.50
2023-05-12T23:58:24.721Z,46.50
